createdAt,value
2017-12-05T00:00:17.896Z,99.90
2017-12-05T00:02:45.764Z,99.90
2017-12-05T00:05:13.630Z,99.90
2017-12-05T00:07:41.498Z,99.90
2017-12-05T00:10:09.365Z,99.90
2017-12-05T00:12:37.233Z,99.90
2017-12-05T00:15:05.100Z,99.90
2017-12-05T00:17:32.968Z,99.90
2017-12-05T00:20:00.834Z,99.90
2017-12-05T00:22:28.702Z,99.90
2017-12-05T00:24:56.569Z,99.90
2017-12-05T00:27:24.437Z,99.90
2017-12-05T00:29:52.237Z,99.90
2017-12-05T00:32:20.888Z,99.90
2017-12-05T00:34:48.755Z,99.90
2017-12-05T00:37:16.622Z,99.90
2017-12-05T00:39:44.490Z,99.90
2017-12-05T00:42:12.358Z,99.90
2017-12-05T00:44:40.224Z,99.90
2017-12-05T00:47:08.092Z,99.90
2017-12-05T00:49:35.959Z,99.90
2017-12-05T00:52:03.827Z,99.90
2017-12-05T00:54:31.694Z,99.90
2017-12-05T00:56:59.560Z,99.90
2017-12-05T00:59:27.430Z,99.90
2017-12-05T01:01:55.296Z,99.90
2017-12-05T01:04:23.162Z,99.90
2017-12-05T01:06:51.851Z,99.90
2017-12-05T01:09:19.719Z,99.90
2017-12-05T01:11:47.512Z,99.90
2017-12-05T01:14:15.350Z,99.90
2017-12-05T01:16:43.220Z,99.90
2017-12-05T01:19:11.084Z,99.90
2017-12-05T01:21:38.951Z,99.90
2017-12-05T01:24:06.817Z,99.90
2017-12-05T01:26:34.686Z,99.90
2017-12-05T01:29:02.553Z,99.90
2017-12-05T01:31:30.420Z,99.90
2017-12-05T01:33:58.288Z,99.90
2017-12-05T01:36:26.155Z,99.90
2017-12-05T01:38:54.022Z,99.90
2017-12-05T01:41:21.893Z,99.90
2017-12-05T01:43:49.757Z,99.90
2017-12-05T01:46:17.624Z,99.90
2017-12-05T01:48:45.491Z,99.90
2017-12-05T01:51:13.382Z,99.90
2017-12-05T01:53:42.045Z,99.90
2017-12-05T01:56:09.912Z,99.90
2017-12-05T01:58:37.882Z,99.90
2017-12-05T02:01:05.852Z,99.90
2017-12-05T02:03:33.719Z,99.90
2017-12-05T02:06:01.587Z,99.90
2017-12-05T02:08:29.559Z,99.90
2017-12-05T02:10:57.527Z,99.90
2017-12-05T02:13:25.496Z,99.90
2017-12-05T02:15:53.363Z,99.90
2017-12-05T02:18:21.158Z,99.90
2017-12-05T02:20:49.098Z,99.90
2017-12-05T02:23:16.969Z,99.90
2017-12-05T02:25:44.832Z,99.90
2017-12-05T02:28:12.700Z,99.90
2017-12-05T02:30:40.567Z,99.90
2017-12-05T02:33:08.434Z,99.90
2017-12-05T02:35:36.302Z,99.90
2017-12-05T02:38:04.988Z,99.90
2017-12-05T02:40:44.733Z,99.90
2017-12-05T02:43:12.601Z,99.90
2017-12-05T02:45:40.468Z,99.90
2017-12-05T02:48:08.337Z,99.90
2017-12-05T02:50:36.204Z,99.90
2017-12-05T02:53:04.070Z,99.90
2017-12-05T02:55:31.873Z,99.90
2017-12-05T02:58:00.888Z,99.90
2017-12-05T03:00:28.799Z,99.90
2017-12-05T03:02:56.667Z,99.90
2017-12-05T03:05:24.533Z,99.90
2017-12-05T03:07:52.399Z,99.90
2017-12-05T03:10:20.268Z,99.90
2017-12-05T03:12:48.136Z,99.90
2017-12-05T03:15:16.002Z,99.90
2017-12-05T03:17:43.869Z,99.90
2017-12-05T03:20:11.737Z,99.90
2017-12-05T03:22:39.604Z,99.90
2017-12-05T03:25:07.471Z,99.90
2017-12-05T03:27:35.339Z,99.90
2017-12-05T03:30:03.208Z,99.90
2017-12-05T03:32:31.074Z,99.90
2017-12-05T03:35:10.821Z,99.90
2017-12-05T03:37:38.687Z,99.90
2017-12-05T03:40:06.554Z,99.90
2017-12-05T03:42:34.421Z,99.90
2017-12-05T03:45:02.292Z,99.90
2017-12-05T03:47:30.155Z,99.90
2017-12-05T03:49:58.025Z,99.90
2017-12-05T03:52:25.890Z,99.90
2017-12-05T03:54:53.758Z,99.90
2017-12-05T03:57:22.445Z,99.90
2017-12-05T03:59:50.209Z,99.90
2017-12-05T04:02:17.976Z,99.90
2017-12-05T04:04:45.842Z,99.90
2017-12-05T04:07:13.710Z,99.90
2017-12-05T04:09:41.576Z,99.90
2017-12-05T04:12:09.443Z,99.90
2017-12-05T04:14:37.312Z,99.90
2017-12-05T04:17:05.180Z,99.90
2017-12-05T04:19:33.052Z,99.90
2017-12-05T04:22:01.733Z,99.90
2017-12-05T04:24:29.599Z,99.90
2017-12-05T04:26:57.466Z,99.90
2017-12-05T04:29:25.334Z,99.90
2017-12-05T04:31:53.202Z,99.90
2017-12-05T04:34:21.068Z,99.90
2017-12-05T04:36:48.935Z,99.90
2017-12-05T04:39:16.805Z,99.90
2017-12-05T04:41:44.671Z,99.90
2017-12-05T04:44:12.538Z,99.90
2017-12-05T04:46:40.406Z,99.90
2017-12-05T04:49:08.272Z,99.90
2017-12-05T04:51:36.139Z,99.90
2017-12-05T04:54:04.008Z,99.90
2017-12-05T04:56:34.447Z,99.90
2017-12-05T04:59:02.609Z,99.90
2017-12-05T05:01:30.621Z,99.90
2017-12-05T05:03:59.265Z,99.90
2017-12-05T05:06:27.132Z,99.90
2017-12-05T05:08:54.999Z,99.90
2017-12-05T05:11:22.868Z,99.90
2017-12-05T05:13:50.733Z,99.90
2017-12-05T05:16:18.601Z,99.90
2017-12-05T05:18:46.367Z,99.90
2017-12-05T05:21:14.233Z,99.90
2017-12-05T05:23:42.101Z,99.90
2017-12-05T05:26:09.868Z,99.90
2017-12-05T05:28:37.633Z,99.90
2017-12-05T05:31:05.425Z,99.90
2017-12-05T05:33:33.263Z,99.90
2017-12-05T05:36:01.133Z,99.90
2017-12-05T05:38:28.999Z,99.90
2017-12-05T05:40:56.864Z,99.90
2017-12-05T05:43:24.733Z,99.90
2017-12-05T05:45:52.599Z,99.90
2017-12-05T05:48:20.467Z,99.90
2017-12-05T05:50:48.334Z,99.90
2017-12-05T05:53:16.202Z,99.90
2017-12-05T05:55:44.068Z,99.90
2017-12-05T05:58:11.937Z,99.90
2017-12-05T06:00:39.857Z,99.90
2017-12-05T06:03:08.490Z,99.90
2017-12-05T06:05:36.356Z,99.90
2017-12-05T06:08:04.225Z,99.90
2017-12-05T06:10:32.091Z,99.90
2017-12-05T06:12:59.972Z,99.90
2017-12-05T06:15:27.827Z,99.90
2017-12-05T06:17:55.693Z,99.90
2017-12-05T06:20:23.560Z,99.90
2017-12-05T06:22:51.427Z,99.90
2017-12-05T06:25:19.295Z,99.90
2017-12-05T06:27:47.162Z,99.90
2017-12-05T06:30:21.306Z,99.90
2017-12-05T06:32:49.964Z,99.90
2017-12-05T06:35:17.830Z,99.90
2017-12-05T06:37:45.698Z,99.90
2017-12-05T06:40:13.567Z,99.90
2017-12-05T06:42:41.434Z,99.90
2017-12-05T06:45:09.404Z,99.90
2017-12-05T06:47:37.268Z,99.90
2017-12-05T06:50:05.137Z,99.90
2017-12-05T06:52:33.004Z,99.90
2017-12-05T06:55:00.974Z,99.90
2017-12-05T06:57:28.843Z,99.90
2017-12-05T06:59:56.709Z,99.90
2017-12-05T07:02:24.578Z,99.90
2017-12-05T07:04:52.442Z,99.90
2017-12-05T07:07:20.314Z,99.90
2017-12-05T07:09:48.181Z,99.90
2017-12-05T07:12:16.045Z,99.90
2017-12-05T07:14:43.911Z,99.90
2017-12-05T07:17:11.780Z,99.90
2017-12-05T07:19:39.748Z,99.90
2017-12-05T07:22:07.616Z,99.90
2017-12-05T07:24:35.483Z,99.90
2017-12-05T07:27:03.350Z,99.90
2017-12-05T07:29:31.217Z,99.90
2017-12-05T07:31:59.186Z,99.90
2017-12-05T07:34:27.059Z,99.90
2017-12-05T07:36:55.025Z,99.90
2017-12-05T07:39:22.891Z,99.90
2017-12-05T07:41:50.759Z,99.90
2017-12-05T07:44:18.627Z,99.90
2017-12-05T07:46:46.494Z,99.90
2017-12-05T07:49:14.464Z,99.90
2017-12-05T07:51:42.331Z,99.90
2017-12-05T07:54:10.300Z,99.90
2017-12-05T07:56:38.168Z,99.90
2017-12-05T07:59:05.928Z,99.90
2017-12-05T08:01:33.807Z,99.90
2017-12-05T08:04:01.668Z,99.90
2017-12-05T08:06:29.535Z,99.90
2017-12-05T08:08:57.506Z,99.90
2017-12-05T08:11:25.577Z,99.90
2017-12-05T08:13:53.549Z,99.90
2017-12-05T08:16:21.516Z,99.90
2017-12-05T08:18:49.485Z,99.90
2017-12-05T08:21:17.455Z,99.90
2017-12-05T08:23:45.425Z,99.90
2017-12-05T08:26:13.292Z,99.90
2017-12-05T08:28:41.262Z,99.90
2017-12-05T08:31:09.231Z,99.90
2017-12-05T08:33:37.201Z,99.90
2017-12-05T08:36:04.993Z,99.90
2017-12-05T08:38:33.653Z,99.90
2017-12-05T08:41:01.520Z,99.90
2017-12-05T08:43:29.489Z,99.90
2017-12-05T08:45:57.387Z,99.90
2017-12-05T08:48:25.328Z,99.90
2017-12-05T08:50:53.194Z,99.90
2017-12-05T08:53:21.061Z,99.90
2017-12-05T08:55:48.929Z,99.90
2017-12-05T08:58:16.796Z,99.90
2017-12-05T09:00:44.664Z,99.90
2017-12-05T09:03:12.530Z,99.90
2017-12-05T09:05:40.398Z,99.90
2017-12-05T09:08:08.265Z,99.90
2017-12-05T09:10:36.132Z,98.00
2017-12-05T09:13:03.999Z,96.10
2017-12-05T09:15:31.867Z,93.80
2017-12-05T09:17:59.734Z,91.40
2017-12-05T09:20:27.602Z,90.60
2017-12-05T09:22:55.472Z,89.90
2017-12-05T09:25:23.336Z,91.10
2017-12-05T09:27:51.203Z,92.10
2017-12-05T09:30:19.071Z,92.20
2017-12-05T09:32:46.938Z,91.70
2017-12-05T09:35:14.806Z,91.50
2017-12-05T09:37:42.673Z,91.00
2017-12-05T09:40:10.643Z,90.40
2017-12-05T09:42:38.511Z,91.20
2017-12-05T09:45:07.195Z,92.80
2017-12-05T09:47:35.064Z,92.90
2017-12-05T09:50:02.931Z,94.40
2017-12-05T09:52:30.797Z,95.40
2017-12-05T09:54:58.670Z,93.10
2017-12-05T09:57:26.532Z,92.70
2017-12-05T09:59:54.400Z,92.10
2017-12-05T10:02:22.278Z,91.50
2017-12-05T10:04:50.237Z,90.70
2017-12-05T10:07:18.104Z,89.10
2017-12-05T10:09:45.972Z,90.20
2017-12-05T10:12:13.839Z,91.80
2017-12-05T10:14:41.707Z,92.00
2017-12-05T10:17:09.576Z,93.80
2017-12-05T10:19:37.443Z,93.80
2017-12-05T10:22:05.308Z,94.80
2017-12-05T10:24:33.175Z,95.20
2017-12-05T10:27:01.043Z,96.60
2017-12-05T10:29:28.909Z,96.80
2017-12-05T10:31:56.777Z,97.20
2017-12-05T10:34:24.644Z,97.20
2017-12-05T10:36:52.511Z,97.60
2017-12-05T10:39:20.379Z,97.50
2017-12-05T10:41:48.247Z,97.30
2017-12-05T10:44:16.159Z,97.70
2017-12-05T10:46:44.801Z,96.90
2017-12-05T10:49:12.659Z,96.90
2017-12-05T10:51:40.535Z,97.20
2017-12-05T10:54:08.402Z,97.50
2017-12-05T10:56:36.270Z,97.60
2017-12-05T10:59:04.136Z,97.40
2017-12-05T11:01:32.004Z,97.70
2017-12-05T11:03:59.799Z,98.00
2017-12-05T11:06:28.455Z,97.50
2017-12-05T11:08:56.427Z,97.40
2017-12-05T11:11:24.397Z,97.60
2017-12-05T11:13:52.314Z,97.20
2017-12-05T11:16:20.956Z,97.30
2017-12-05T11:18:48.816Z,97.30
2017-12-05T11:21:16.786Z,97.70
2017-12-05T11:23:44.652Z,97.60
2017-12-05T11:26:12.521Z,97.50
2017-12-05T11:28:40.387Z,97.60
2017-12-05T11:31:08.255Z,97.70
2017-12-05T11:33:36.121Z,97.00
2017-12-05T11:36:03.990Z,97.90
2017-12-05T11:38:31.856Z,97.60
2017-12-05T11:40:59.724Z,97.20
2017-12-05T11:43:27.592Z,97.90
2017-12-05T11:45:55.458Z,97.20
2017-12-05T11:48:23.338Z,97.70
2017-12-05T11:50:51.194Z,97.90
2017-12-05T11:53:19.060Z,98.20
2017-12-05T11:55:46.927Z,98.10
2017-12-05T11:58:14.798Z,97.90
2017-12-05T12:00:42.668Z,97.90
2017-12-05T12:03:10.532Z,97.50
2017-12-05T12:05:38.398Z,97.80
2017-12-05T12:08:06.264Z,97.40
2017-12-05T12:10:34.132Z,97.60
2017-12-05T12:13:01.999Z,97.80
2017-12-05T12:15:29.866Z,97.80
2017-12-05T12:17:57.733Z,98.00
2017-12-05T12:20:25.602Z,97.70
2017-12-05T12:22:53.470Z,97.50
2017-12-05T12:25:21.340Z,98.00
2017-12-05T12:27:49.203Z,97.90
2017-12-05T12:30:17.072Z,98.10
2017-12-05T12:32:44.938Z,98.20
2017-12-05T12:35:12.804Z,98.20
2017-12-05T12:37:40.672Z,98.20
2017-12-05T12:40:08.540Z,98.10
2017-12-05T12:42:36.407Z,98.40
2017-12-05T12:45:04.274Z,98.30
2017-12-05T12:47:32.140Z,98.40
2017-12-05T12:50:00.009Z,98.30
2017-12-05T12:52:27.875Z,98.30
2017-12-05T12:54:55.743Z,98.30
2017-12-05T12:57:23.610Z,98.40
2017-12-05T12:59:51.477Z,98.40
2017-12-05T13:02:20.164Z,98.80
2017-12-05T13:04:48.032Z,98.70
2017-12-05T13:07:15.899Z,98.80
2017-12-05T13:09:43.778Z,98.20
2017-12-05T13:12:11.633Z,98.20
2017-12-05T13:14:39.501Z,98.10
2017-12-05T13:17:07.368Z,98.30
2017-12-05T13:19:35.235Z,98.30
2017-12-05T13:22:03.103Z,98.50
2017-12-05T13:24:30.972Z,98.10
2017-12-05T13:26:58.837Z,98.60
2017-12-05T13:29:26.705Z,98.50
2017-12-05T13:31:54.572Z,98.60
2017-12-05T13:34:22.438Z,98.60
2017-12-05T13:36:50.306Z,98.70
2017-12-05T13:39:18.173Z,98.80
2017-12-05T13:41:46.041Z,98.70
2017-12-05T13:44:13.907Z,98.70
2017-12-05T13:46:41.775Z,98.40
2017-12-05T13:49:09.643Z,98.40
2017-12-05T13:51:37.563Z,98.20
2017-12-05T13:54:06.196Z,98.70
2017-12-05T13:56:34.064Z,98.70
2017-12-05T13:59:01.931Z,98.40
2017-12-05T14:01:30.622Z,98.90
2017-12-05T14:03:58.485Z,98.90
2017-12-05T14:06:26.352Z,98.80
2017-12-05T14:08:54.219Z,98.50
2017-12-05T14:11:22.086Z,98.80
2017-12-05T14:13:49.954Z,98.70
2017-12-05T14:16:17.820Z,98.80
2017-12-05T14:18:45.688Z,98.70
2017-12-05T14:21:13.556Z,99.00
2017-12-05T14:23:41.423Z,99.10
2017-12-05T14:26:09.289Z,99.00
2017-12-05T14:28:37.157Z,99.00
2017-12-05T14:31:05.131Z,99.10
2017-12-05T14:33:32.997Z,99.20
2017-12-05T14:36:00.862Z,99.30
2017-12-05T14:38:28.729Z,99.50
2017-12-05T14:40:56.596Z,99.50
2017-12-05T14:43:25.282Z,99.60
2017-12-05T14:45:53.150Z,99.60
2017-12-05T14:48:21.017Z,99.50
2017-12-05T14:50:48.884Z,99.60
2017-12-05T14:53:16.753Z,99.50
2017-12-05T14:55:45.439Z,99.30
2017-12-05T14:58:13.408Z,99.30
2017-12-05T15:00:41.278Z,99.40
2017-12-05T15:03:09.144Z,99.30
2017-12-05T15:05:37.010Z,99.30
2017-12-05T15:08:04.806Z,99.20
2017-12-05T15:10:32.643Z,99.30
2017-12-05T15:13:00.438Z,99.30
2017-12-05T15:15:28.275Z,99.40
2017-12-05T15:17:56.141Z,99.20
2017-12-05T15:20:24.010Z,99.40
2017-12-05T15:22:51.876Z,99.60
2017-12-05T15:25:19.745Z,99.50
2017-12-05T15:27:47.611Z,99.50
2017-12-05T15:30:15.479Z,99.60
2017-12-05T15:32:43.341Z,99.80
2017-12-05T15:35:11.212Z,99.80
2017-12-05T15:37:39.081Z,99.50
2017-12-05T15:40:06.885Z,99.60
2017-12-05T15:42:35.531Z,99.50
2017-12-05T15:45:03.398Z,99.50
2017-12-05T15:47:31.267Z,99.50
2017-12-05T15:49:59.133Z,99.70
2017-12-05T15:52:27.059Z,99.60
2017-12-05T15:54:55.688Z,99.40
2017-12-05T15:57:23.570Z,99.30
2017-12-05T15:59:51.422Z,99.50
2017-12-05T16:02:19.290Z,99.50
2017-12-05T16:04:47.156Z,99.30
2017-12-05T16:07:15.024Z,99.60
2017-12-05T16:09:42.894Z,99.60
2017-12-05T16:12:10.758Z,99.80
2017-12-05T16:14:38.626Z,99.40
2017-12-05T16:17:06.493Z,99.50
2017-12-05T16:19:34.361Z,99.50
2017-12-05T16:22:02.232Z,99.40
2017-12-05T16:24:30.095Z,99.60
2017-12-05T16:26:58.575Z,99.70
2017-12-05T16:29:28.731Z,99.70
2017-12-05T16:31:56.769Z,99.50
2017-12-05T16:34:24.636Z,99.50
2017-12-05T16:36:52.503Z,99.70
2017-12-05T16:39:20.371Z,99.50
2017-12-05T16:41:48.238Z,99.70
2017-12-05T16:44:16.105Z,99.60
2017-12-05T16:46:43.975Z,99.50
2017-12-05T16:49:11.840Z,99.50
2017-12-05T16:51:39.706Z,99.40
2017-12-05T16:54:07.578Z,99.40
2017-12-05T16:56:35.442Z,99.50
2017-12-05T16:59:05.032Z,99.30
2017-12-05T17:01:35.208Z,99.30
2017-12-05T17:04:03.141Z,99.40
2017-12-05T17:06:31.109Z,99.40
2017-12-05T17:08:58.976Z,99.60
2017-12-05T17:11:26.983Z,99.70
2017-12-05T17:13:55.632Z,99.60
2017-12-05T17:16:23.499Z,99.60
2017-12-05T17:18:51.368Z,99.50
2017-12-05T17:21:19.440Z,99.50
2017-12-05T17:23:47.546Z,99.30
2017-12-05T17:26:16.198Z,99.60
2017-12-05T17:28:44.065Z,99.60
2017-12-05T17:31:12.036Z,99.40
2017-12-05T17:33:39.902Z,99.70
2017-12-05T17:36:07.770Z,99.70
2017-12-05T17:38:35.638Z,99.90
2017-12-05T17:41:03.504Z,99.70
2017-12-05T17:43:31.375Z,99.80
2017-12-05T17:45:59.239Z,99.80
2017-12-05T17:48:27.107Z,99.60
2017-12-05T17:50:54.976Z,99.70
2017-12-05T17:53:22.946Z,99.70
2017-12-05T17:55:50.812Z,99.70
2017-12-05T17:58:18.678Z,99.40
2017-12-05T18:00:46.546Z,99.50
2017-12-05T18:03:14.413Z,99.50
2017-12-05T18:05:42.280Z,99.50
2017-12-05T18:08:10.250Z,99.50
2017-12-05T18:10:38.117Z,99.50
2017-12-05T18:13:05.899Z,99.50
2017-12-05T18:15:33.809Z,99.60
2017-12-05T18:18:01.719Z,99.70
2017-12-05T18:20:29.586Z,99.50
2017-12-05T18:22:57.453Z,99.50
2017-12-05T18:25:25.424Z,99.50
2017-12-05T18:27:53.394Z,99.50
2017-12-05T18:30:21.262Z,99.50
2017-12-05T18:32:49.164Z,99.60
2017-12-05T18:35:17.815Z,99.40
2017-12-05T18:37:45.784Z,99.40
2017-12-05T18:40:13.652Z,99.20
2017-12-05T18:42:41.519Z,99.40
2017-12-05T18:45:09.386Z,99.60
2017-12-05T18:47:37.359Z,99.60
2017-12-05T18:50:05.325Z,99.70
2017-12-05T18:52:33.192Z,99.70
2017-12-05T18:55:01.060Z,99.70
2017-12-05T18:57:29.030Z,99.70
2017-12-05T18:59:56.897Z,99.90
2017-12-05T19:02:24.867Z,99.80
2017-12-05T19:04:52.734Z,99.80
2017-12-05T19:07:20.601Z,99.80
2017-12-05T19:09:48.447Z,99.80
2017-12-05T19:12:16.335Z,99.90
2017-12-05T19:14:44.204Z,99.70
2017-12-05T19:17:12.072Z,99.80
2017-12-05T19:19:39.940Z,99.60
2017-12-05T19:22:07.908Z,99.60
2017-12-05T19:24:35.878Z,99.60
2017-12-05T19:27:03.856Z,99.60
2017-12-05T19:29:31.818Z,99.70
2017-12-05T19:31:59.787Z,99.70
2017-12-05T19:34:27.580Z,99.80
2017-12-05T19:36:55.624Z,99.80
2017-12-05T19:39:23.491Z,99.90
2017-12-05T19:41:51.290Z,99.80
2017-12-05T19:44:22.196Z,99.80
2017-12-05T19:46:50.062Z,99.90
2017-12-05T19:49:17.929Z,99.70
2017-12-05T19:51:45.899Z,99.90
2017-12-05T19:54:13.869Z,99.90
2017-12-05T19:56:41.839Z,99.90
2017-12-05T19:59:09.706Z,99.90
2017-12-05T20:01:37.574Z,99.90
2017-12-05T20:04:05.445Z,99.90
2017-12-05T20:06:33.308Z,99.90
2017-12-05T20:09:01.278Z,99.90
2017-12-05T20:11:29.248Z,99.90
2017-12-05T20:13:57.115Z,99.90
2017-12-05T20:16:25.085Z,99.90
2017-12-05T20:18:52.952Z,99.80
2017-12-05T20:21:20.819Z,99.90
2017-12-05T20:23:48.619Z,99.90
2017-12-05T20:26:17.271Z,99.90
2017-12-05T20:28:45.141Z,99.90
2017-12-05T20:31:13.929Z,99.80
2017-12-05T20:33:41.797Z,99.70
2017-12-05T20:36:09.662Z,99.80
2017-12-05T20:38:37.529Z,99.70
2017-12-05T20:41:05.397Z,99.90
2017-12-05T20:43:33.264Z,99.80
2017-12-05T20:46:01.132Z,99.90
2017-12-05T20:48:30.228Z,99.80
2017-12-05T20:50:59.441Z,99.90
2017-12-05T20:53:27.293Z,99.90
2017-12-05T20:55:55.901Z,99.90
2017-12-05T20:58:23.745Z,99.90
2017-12-05T21:00:51.612Z,99.80
2017-12-05T21:03:19.480Z,99.90
2017-12-05T21:05:47.347Z,99.90
2017-12-05T21:08:15.214Z,99.90
2017-12-05T21:10:43.082Z,99.90
2017-12-05T21:13:10.950Z,99.80
2017-12-05T21:15:38.715Z,99.90
2017-12-05T21:18:06.582Z,99.90
2017-12-05T21:20:35.267Z,99.80
2017-12-05T21:23:03.136Z,99.80
2017-12-05T21:25:31.002Z,99.60
2017-12-05T21:27:58.869Z,99.70
2017-12-05T21:30:26.736Z,99.60
2017-12-05T21:32:54.604Z,99.80
2017-12-05T21:35:22.472Z,99.70
2017-12-05T21:37:50.335Z,99.90
2017-12-05T21:40:18.206Z,99.90
2017-12-05T21:42:46.073Z,99.90
2017-12-05T21:45:13.940Z,99.90
2017-12-05T21:47:41.808Z,99.70
2017-12-05T21:50:09.675Z,99.90
2017-12-05T21:52:37.543Z,99.90
2017-12-05T21:55:05.411Z,99.90
2017-12-05T21:57:33.382Z,99.90
2017-12-05T22:00:01.248Z,99.90
2017-12-05T22:02:29.114Z,99.90
2017-12-05T22:04:56.982Z,99.90
2017-12-05T22:07:24.849Z,99.90
2017-12-05T22:09:52.716Z,99.90
2017-12-05T22:12:20.586Z,99.90
2017-12-05T22:14:48.450Z,99.90
2017-12-05T22:17:16.318Z,99.90
2017-12-05T22:19:44.186Z,99.90
2017-12-05T22:22:12.053Z,99.90
2017-12-05T22:24:39.925Z,99.90
2017-12-05T22:27:07.788Z,99.90
2017-12-05T22:29:35.654Z,99.90
2017-12-05T22:32:03.523Z,99.90
2017-12-05T22:34:31.390Z,99.90
2017-12-05T22:36:59.257Z,99.90
2017-12-05T22:39:27.124Z,99.90
2017-12-05T22:41:54.992Z,99.90
2017-12-05T22:44:22.858Z,99.90
2017-12-05T22:46:50.726Z,99.90
2017-12-05T22:49:18.593Z,99.90
2017-12-05T22:51:46.461Z,99.90
2017-12-05T22:54:14.328Z,99.90
2017-12-05T22:56:42.195Z,99.90
2017-12-05T22:59:10.063Z,99.90
2017-12-05T23:01:37.933Z,99.90
2017-12-05T23:04:05.797Z,99.90
2017-12-05T23:06:33.665Z,99.90
2017-12-05T23:09:01.533Z,99.90
2017-12-05T23:11:29.398Z,99.90
2017-12-05T23:13:57.266Z,99.90
2017-12-05T23:16:25.140Z,99.90
2017-12-05T23:18:53.017Z,99.90
2017-12-05T23:21:20.868Z,99.90
2017-12-05T23:23:48.737Z,99.90
2017-12-05T23:26:16.603Z,99.90
2017-12-05T23:28:44.473Z,99.90
2017-12-05T23:31:12.338Z,99.90
2017-12-05T23:33:40.204Z,99.90
2017-12-05T23:36:08.075Z,99.90
2017-12-05T23:38:36.758Z,99.90
2017-12-05T23:41:04.626Z,99.90
2017-12-05T23:43:32.698Z,99.90
2017-12-05T23:46:00.565Z,99.90
2017-12-05T23:48:28.432Z,99.90
2017-12-05T23:50:56.301Z,99.90
2017-12-05T23:53:24.166Z,99.90
2017-12-05T23:55:52.035Z,99.90
2017-12-05T23:58:19.902Z,99.90
